createdAt,value
2023-03-05T00:00:42.519Z,2.60
2023-03-05T00:03:30.596Z,2.70
2023-03-05T00:06:05.185Z,2.70
2023-03-05T00:08:40.230Z,3.70
2023-03-05T00:11:16.653Z,3.10
2023-03-05T00:13:52.596Z,3.10
2023-03-05T00:16:27.876Z,2.90
2023-03-05T00:19:03.314Z,2.50
2023-03-05T00:21:40.098Z,2.50
2023-03-05T00:24:18.583Z,2.80
2023-03-05T00:26:53.328Z,3.20
2023-03-05T00:29:29.597Z,3.20
2023-03-05T00:32:05.507Z,3.00
2023-03-05T00:34:39.598Z,2.70
2023-03-05T00:37:13.751Z,2.30
2023-03-05T00:39:47.931Z,3.00
2023-03-05T00:42:21.996Z,2.70
2023-03-05T00:44:56.061Z,2.80
2023-03-05T00:47:30.186Z,2.70
2023-03-05T00:50:06.272Z,2.90
2023-03-05T00:52:40.366Z,2.90
2023-03-05T00:55:15.058Z,2.40
2023-03-05T00:57:49.975Z,2.90
2023-03-05T01:00:24.944Z,2.70
2023-03-05T01:02:58.973Z,3.00
2023-03-05T01:05:33.853Z,3.30
2023-03-05T01:08:09.298Z,3.00
2023-03-05T01:10:45.294Z,3.30
2023-03-05T01:13:22.276Z,3.40
2023-03-05T01:15:59.308Z,3.60
2023-03-05T01:18:35.271Z,4.60
2023-03-05T01:21:13.280Z,5.00
2023-03-05T01:23:51.192Z,4.50
2023-03-05T01:26:28.268Z,4.00
2023-03-05T01:29:04.273Z,4.80
2023-03-05T01:31:41.318Z,4.00
2023-03-05T01:34:18.273Z,3.80
2023-03-05T01:36:54.264Z,3.90
2023-03-05T01:39:29.622Z,3.40
2023-03-05T01:42:05.259Z,3.40
2023-03-05T01:44:41.359Z,3.20
2023-03-05T01:47:18.247Z,3.10
2023-03-05T01:49:55.272Z,3.30
2023-03-05T01:52:35.267Z,3.60
2023-03-05T01:55:17.275Z,3.20
2023-03-05T01:57:57.268Z,3.10
2023-03-05T02:00:37.264Z,4.20
2023-03-05T02:03:17.297Z,3.50
2023-03-05T02:05:53.229Z,4.10
2023-03-05T02:08:29.269Z,3.00
2023-03-05T02:11:05.269Z,3.50
2023-03-05T02:13:42.250Z,2.80
2023-03-05T02:16:18.328Z,3.90
2023-03-05T02:18:54.264Z,3.90
2023-03-05T02:21:44.273Z,4.00
2023-03-05T02:24:35.128Z,4.10
2023-03-05T02:27:12.261Z,4.30
2023-03-05T02:29:50.251Z,4.60
2023-03-05T02:32:26.287Z,4.20
2023-03-05T02:35:02.266Z,4.30
2023-03-05T02:37:38.285Z,3.20
2023-03-05T02:40:19.308Z,3.00
2023-03-05T02:42:56.290Z,2.80
2023-03-05T02:45:33.283Z,2.40
2023-03-05T02:48:09.633Z,2.10
2023-03-05T02:50:46.597Z,1.80
2023-03-05T02:53:23.250Z,1.60
2023-03-05T02:56:00.253Z,1.60
2023-03-05T02:58:38.249Z,1.50
2023-03-05T03:01:15.289Z,1.60
2023-03-05T03:03:52.333Z,1.90
2023-03-05T03:13:15.547Z,1.70
2023-03-05T03:15:49.852Z,1.10
2023-03-05T03:18:24.412Z,1.00
2023-03-05T03:20:58.594Z,1.00
2023-03-05T03:23:34.951Z,1.20
2023-03-05T03:26:09.591Z,1.10
2023-03-05T03:28:44.487Z,0.70
2023-03-05T03:31:18.837Z,0.80
2023-03-05T03:33:53.304Z,1.10
2023-03-05T03:36:27.781Z,0.90
2023-03-05T03:39:02.650Z,1.00
2023-03-05T03:41:37.620Z,0.90
2023-03-05T03:44:12.162Z,1.20
2023-03-05T03:46:47.197Z,1.00
2023-03-05T03:49:24.762Z,1.20
2023-03-05T03:51:59.383Z,1.10
2023-03-05T03:54:33.891Z,1.10
2023-03-05T03:57:08.862Z,1.30
2023-03-05T03:59:45.507Z,1.10
2023-03-05T04:02:19.684Z,1.20
2023-03-05T04:04:54.869Z,1.20
2023-03-05T04:07:29.252Z,1.00
2023-03-05T04:10:03.520Z,0.90
2023-03-05T04:12:38.910Z,0.90
2023-03-05T04:15:15.505Z,1.20
2023-03-05T04:17:49.794Z,0.80
2023-03-05T04:20:24.711Z,0.90
2023-03-05T04:22:59.282Z,0.90
2023-03-05T04:25:33.855Z,0.80
2023-03-05T04:28:08.726Z,1.20
2023-03-05T04:30:43.141Z,0.90
2023-03-05T04:33:17.635Z,1.30
2023-03-05T04:35:52.260Z,0.90
2023-03-05T04:38:27.097Z,1.40
2023-03-05T04:41:01.349Z,1.20
2023-03-05T04:43:36.495Z,1.40
2023-03-05T04:46:10.985Z,1.00
2023-03-05T04:48:45.382Z,0.80
2023-03-05T04:51:19.684Z,0.80
2023-03-05T04:53:54.151Z,0.70
2023-03-05T04:56:28.551Z,1.10
2023-03-05T04:59:03.765Z,1.30
2023-03-05T05:01:38.777Z,1.40
2023-03-05T05:04:13.631Z,1.10
2023-03-05T05:06:48.015Z,1.20
2023-03-05T05:09:22.408Z,0.90
2023-03-05T05:11:56.835Z,1.60
2023-03-05T05:14:31.364Z,2.80
2023-03-05T05:17:06.118Z,3.50
2023-03-05T05:19:40.410Z,2.80
2023-03-05T05:22:14.943Z,1.60
2023-03-05T05:24:49.269Z,1.80
2023-03-05T05:27:24.416Z,2.10
2023-03-05T05:29:59.440Z,1.60
2023-03-05T05:32:33.892Z,1.50
2023-03-05T05:35:09.553Z,1.60
2023-03-05T05:37:43.948Z,1.40
2023-03-05T05:40:19.356Z,1.80
2023-03-05T05:42:53.773Z,1.70
2023-03-05T05:45:28.286Z,2.00
2023-03-05T05:48:02.868Z,1.50
2023-03-05T05:50:38.589Z,1.90
2023-03-05T05:53:12.945Z,1.40
2023-03-05T05:55:47.436Z,1.40
2023-03-05T05:58:22.168Z,1.90
2023-03-05T06:00:56.394Z,1.60
2023-03-05T06:03:31.138Z,1.70
2023-03-05T06:06:09.236Z,1.30
2023-03-05T06:08:44.937Z,1.60
2023-03-05T06:11:19.821Z,1.80
2023-03-05T06:13:54.831Z,2.00
2023-03-05T06:16:29.478Z,2.50
2023-03-05T06:19:04.705Z,2.70
2023-03-05T06:21:39.168Z,2.00
2023-03-05T06:24:14.832Z,2.40
2023-03-05T06:26:49.298Z,1.90
2023-03-05T06:29:23.334Z,2.70
2023-03-05T06:31:57.506Z,2.70
2023-03-05T06:34:31.610Z,2.40
2023-03-05T06:37:05.669Z,3.20
2023-03-05T06:39:39.753Z,2.80
2023-03-05T06:42:14.000Z,2.80
2023-03-05T06:44:48.746Z,3.50
2023-03-05T06:47:22.837Z,2.20
2023-03-05T06:49:56.926Z,4.00
2023-03-05T06:52:30.927Z,2.30
2023-03-05T06:55:05.147Z,3.20
2023-03-05T06:57:39.220Z,3.30
2023-03-05T07:00:17.181Z,3.70
2023-03-05T07:02:51.358Z,5.90
2023-03-05T07:05:25.965Z,4.60
2023-03-05T07:08:00.069Z,5.30
2023-03-05T07:10:34.312Z,4.40
2023-03-05T07:13:08.439Z,4.90
2023-03-05T07:15:44.456Z,3.90
2023-03-05T07:18:18.589Z,4.00
2023-03-05T07:20:52.693Z,5.00
2023-03-05T07:23:26.753Z,4.50
2023-03-05T07:26:02.033Z,4.50
2023-03-05T07:28:36.903Z,4.10
2023-03-05T07:31:16.239Z,3.90
2023-03-05T07:33:51.317Z,4.10
2023-03-05T07:36:25.840Z,4.70
2023-03-05T07:38:59.993Z,4.20
2023-03-05T07:41:34.303Z,2.80
2023-03-05T07:44:08.505Z,3.70
2023-03-05T07:46:42.841Z,3.60
2023-03-05T07:49:17.451Z,4.40
2023-03-05T07:51:52.429Z,2.80
2023-03-05T07:54:27.085Z,3.20
2023-03-05T07:57:01.230Z,3.00
2023-03-05T07:59:36.047Z,2.40
2023-03-05T08:02:11.705Z,2.70
2023-03-05T08:04:46.061Z,2.20
2023-03-05T08:07:20.585Z,2.00
2023-03-05T08:09:54.701Z,2.10
2023-03-05T08:12:29.202Z,1.50
2023-03-05T08:15:03.770Z,1.30
2023-03-05T08:17:37.925Z,1.30
2023-03-05T08:20:15.590Z,1.40
2023-03-05T08:22:50.110Z,1.10
2023-03-05T08:25:24.698Z,1.20
2023-03-05T08:27:58.725Z,1.50
2023-03-05T08:30:32.962Z,1.00
2023-03-05T08:33:07.227Z,1.10
2023-03-05T08:35:41.678Z,1.00
2023-03-05T08:38:16.075Z,1.00
2023-03-05T08:40:50.896Z,1.10
2023-03-05T08:43:24.951Z,0.70
2023-03-05T08:45:59.026Z,0.90
2023-03-05T08:48:34.620Z,1.00
2023-03-05T08:51:14.666Z,0.70
2023-03-05T08:53:49.927Z,0.80
2023-03-05T08:56:26.292Z,1.10
2023-03-05T08:59:00.548Z,1.50
2023-03-05T09:01:34.734Z,1.10
2023-03-05T09:04:08.933Z,0.70
2023-03-05T09:06:43.106Z,0.60
2023-03-05T09:09:20.753Z,0.90
2023-03-05T09:11:55.320Z,0.70
2023-03-05T09:14:29.758Z,1.00
2023-03-05T09:17:05.388Z,1.10
2023-03-05T09:19:39.718Z,1.20
2023-03-05T09:22:13.856Z,1.20
2023-03-05T09:24:47.936Z,0.90
2023-03-05T09:27:22.511Z,1.00
2023-03-05T09:29:56.641Z,1.40
2023-03-05T09:32:34.754Z,1.50
2023-03-05T09:35:12.136Z,1.60
2023-03-05T09:37:46.366Z,1.50
2023-03-05T09:40:26.478Z,2.20
2023-03-05T09:43:12.897Z,1.90
2023-03-05T09:46:03.829Z,1.90
2023-03-05T09:48:53.516Z,1.90
2023-03-05T09:51:34.169Z,2.30
2023-03-05T09:54:17.723Z,2.50
2023-03-05T09:56:57.180Z,3.00
2023-03-05T09:59:42.939Z,2.70
2023-03-05T10:02:26.707Z,2.80
2023-03-05T10:05:14.944Z,2.60
2023-03-05T10:07:59.872Z,2.40
2023-03-05T10:10:44.614Z,2.20
2023-03-05T10:13:27.282Z,2.40
2023-03-05T10:16:17.966Z,2.30
2023-03-05T10:19:02.717Z,2.40
2023-03-05T10:21:48.407Z,2.10
2023-03-05T10:24:42.665Z,1.80
2023-03-05T10:27:29.921Z,1.70
2023-03-05T10:30:22.018Z,1.50
2023-03-05T10:33:11.922Z,1.40
2023-03-05T10:36:01.108Z,1.80
2023-03-05T10:39:04.086Z,1.60
2023-03-05T10:41:53.224Z,1.80
2023-03-05T10:44:37.870Z,1.50
2023-03-05T10:47:24.117Z,1.50
2023-03-05T10:50:00.238Z,0.90
2023-03-05T10:52:39.790Z,1.10
2023-03-05T10:55:21.263Z,0.90
2023-03-05T10:57:55.475Z,1.40
2023-03-05T11:01:06.128Z,1.20
2023-03-05T11:03:59.894Z,1.30
2023-03-05T11:06:41.642Z,1.40
2023-03-05T11:09:29.361Z,1.40
2023-03-05T11:12:17.708Z,1.30
2023-03-05T11:15:23.604Z,2.00
2023-03-05T11:18:34.386Z,1.40
2023-03-05T11:21:23.990Z,2.00
2023-03-05T11:24:15.148Z,1.80
2023-03-05T11:26:55.458Z,1.70
2023-03-05T11:29:33.542Z,1.60
2023-03-05T11:32:25.788Z,2.20
2023-03-05T11:35:00.829Z,1.10
2023-03-05T11:37:36.581Z,1.80
2023-03-05T11:40:29.211Z,2.10
2023-03-05T11:43:06.077Z,2.00
2023-03-05T11:45:42.204Z,1.80
2023-03-05T11:48:26.227Z,1.90
2023-03-05T11:51:17.125Z,1.70
2023-03-05T11:53:56.972Z,2.10
2023-03-05T11:56:36.035Z,1.60
2023-03-05T11:59:19.228Z,2.40
2023-03-05T12:01:57.645Z,2.50
2023-03-05T12:04:34.158Z,2.00
2023-03-05T12:07:12.778Z,2.40
2023-03-05T12:09:50.329Z,2.40
2023-03-05T12:12:38.615Z,2.60
2023-03-05T12:15:39.107Z,2.80
2023-03-05T12:18:38.782Z,2.70
2023-03-05T12:21:28.886Z,2.10
2023-03-05T12:24:06.169Z,2.50
2023-03-05T12:27:16.282Z,2.50
2023-03-05T12:29:54.987Z,1.70
2023-03-05T12:33:02.894Z,2.30
2023-03-05T12:35:41.898Z,1.70
2023-03-05T12:38:36.462Z,2.40
2023-03-05T12:41:38.552Z,2.80
2023-03-05T12:44:29.691Z,2.30
2023-03-05T12:47:29.486Z,2.40
2023-03-05T12:50:03.841Z,2.20
2023-03-05T12:52:39.897Z,1.90
2023-03-05T12:55:27.737Z,2.20
2023-03-05T12:58:06.402Z,1.90
2023-03-05T13:00:49.605Z,2.50
2023-03-05T13:03:38.029Z,2.20
2023-03-05T13:06:31.115Z,2.30
2023-03-05T13:09:17.538Z,2.00
2023-03-05T13:11:58.151Z,2.30
2023-03-05T13:14:43.125Z,2.00
2023-03-05T13:17:40.118Z,1.70
2023-03-05T13:20:44.135Z,2.40
2023-03-05T13:23:26.618Z,1.70
2023-03-05T13:26:16.134Z,1.60
2023-03-05T13:29:13.125Z,2.20
2023-03-05T13:31:52.139Z,2.30
2023-03-05T13:34:44.679Z,2.50
2023-03-05T13:37:26.124Z,1.90
2023-03-05T13:40:08.117Z,1.90
2023-03-05T13:42:44.132Z,1.90
2023-03-05T13:45:30.416Z,2.30
2023-03-05T13:48:08.099Z,1.10
2023-03-05T13:50:46.119Z,0.90
2023-03-05T13:53:28.118Z,0.90
2023-03-05T13:56:07.136Z,1.00
2023-03-05T13:58:54.114Z,0.90
2023-03-05T14:01:44.124Z,1.90
2023-03-05T14:04:28.129Z,1.20
2023-03-05T14:15:33.204Z,1.40
2023-03-05T14:18:24.713Z,1.60
2023-03-05T14:21:12.447Z,1.70
2023-03-05T14:23:48.925Z,2.20
2023-03-05T14:26:35.282Z,2.20
2023-03-05T14:29:21.255Z,2.30
2023-03-05T14:32:00.005Z,2.40
2023-03-05T14:34:39.373Z,1.50
2023-03-05T14:37:26.030Z,1.70
2023-03-05T14:40:05.598Z,1.90
2023-03-05T14:42:56.828Z,1.70
2023-03-05T14:45:34.132Z,1.40
2023-03-05T14:48:12.999Z,1.70
2023-03-05T14:50:56.302Z,2.30
2023-03-05T14:53:39.862Z,2.10
2023-03-05T14:56:26.868Z,2.40
2023-03-05T14:59:01.870Z,2.60
2023-03-05T15:01:36.486Z,2.20
2023-03-05T15:04:11.391Z,2.00
2023-03-05T15:06:51.718Z,1.90
2023-03-05T15:09:26.936Z,2.10
2023-03-05T15:12:01.356Z,2.30
2023-03-05T15:14:36.021Z,2.30
2023-03-05T15:17:23.234Z,1.50
2023-03-05T15:19:58.372Z,1.90
2023-03-05T15:22:32.944Z,1.90
2023-03-05T15:25:08.254Z,2.10
2023-03-05T15:27:42.971Z,1.50
2023-03-05T15:30:27.251Z,2.10
2023-03-05T15:33:05.433Z,1.10
2023-03-05T15:35:40.836Z,1.10
2023-03-05T15:38:15.572Z,1.20
2023-03-05T15:40:50.723Z,1.20
2023-03-05T15:43:26.304Z,1.40
2023-03-05T15:46:00.989Z,1.40
2023-03-05T15:48:35.587Z,1.60
2023-03-05T15:51:12.762Z,1.90
2023-03-05T15:53:47.650Z,2.10
2023-03-05T15:56:23.173Z,2.50
2023-03-05T15:58:57.770Z,2.50
2023-03-05T16:01:32.504Z,1.80
2023-03-05T16:04:07.143Z,2.10
2023-03-05T16:06:42.154Z,1.60
2023-03-05T16:09:18.557Z,1.50
2023-03-05T16:11:54.192Z,2.10
2023-03-05T16:14:33.548Z,1.80
2023-03-05T16:17:09.468Z,1.60
2023-03-05T16:19:53.224Z,2.00
2023-03-05T16:22:28.306Z,2.50
2023-03-05T16:25:03.462Z,2.70
2023-03-05T16:27:39.000Z,2.40
2023-03-05T16:30:18.288Z,2.30
2023-03-05T16:32:53.872Z,1.80
2023-03-05T16:35:28.852Z,2.40
2023-03-05T16:38:03.962Z,2.70
2023-03-05T16:41:06.965Z,3.10
2023-03-05T16:43:37.360Z,3.00
2023-03-05T16:46:13.033Z,3.30
2023-03-05T16:48:48.602Z,3.00
2023-03-05T16:51:24.141Z,3.40
2023-03-05T16:53:59.210Z,3.10
2023-03-05T16:56:34.302Z,2.60
2023-03-05T16:59:09.700Z,2.90
2023-03-05T17:01:45.288Z,3.10
2023-03-05T17:04:20.977Z,2.80
2023-03-05T17:06:55.934Z,5.20
2023-03-05T17:09:31.565Z,4.40
2023-03-05T17:12:07.128Z,6.40
2023-03-05T17:14:43.897Z,4.60
2023-03-05T17:17:21.009Z,3.90
2023-03-05T17:19:55.930Z,3.30
2023-03-05T17:22:30.813Z,3.90
2023-03-05T17:25:06.514Z,3.80
2023-03-05T17:27:41.042Z,4.50
2023-03-05T17:30:18.424Z,5.00
2023-03-05T17:32:55.201Z,3.80
2023-03-05T17:35:30.272Z,3.50
2023-03-05T17:38:07.569Z,3.50
2023-03-05T17:40:41.892Z,3.00
2023-03-05T17:43:16.868Z,3.30
2023-03-05T17:45:51.919Z,4.60
2023-03-05T17:48:29.435Z,4.40
2023-03-05T17:51:04.478Z,5.10
2023-03-05T17:53:40.389Z,6.00
2023-03-05T17:56:20.456Z,5.50
2023-03-05T17:58:55.788Z,5.90
2023-03-05T18:01:34.627Z,4.80
2023-03-05T18:04:11.271Z,4.80
2023-03-05T18:06:46.617Z,5.30
2023-03-05T18:09:20.913Z,4.40
2023-03-05T18:11:55.809Z,4.10
2023-03-05T18:14:30.870Z,4.80
2023-03-05T18:17:05.310Z,5.90
2023-03-05T18:19:40.216Z,7.10
2023-03-05T18:22:14.914Z,3.90
2023-03-05T18:24:49.956Z,3.90
2023-03-05T18:27:25.122Z,3.80
2023-03-05T18:29:59.891Z,5.40
2023-03-05T18:32:34.823Z,5.50
2023-03-05T18:35:12.483Z,5.00
2023-03-05T18:37:47.424Z,4.80
2023-03-05T18:40:26.713Z,4.10
2023-03-05T18:43:04.608Z,4.00
2023-03-05T18:45:39.145Z,5.40
2023-03-05T18:48:13.824Z,5.10
2023-03-05T18:50:50.216Z,7.10
2023-03-05T18:53:25.532Z,6.70
2023-03-05T18:55:59.846Z,7.90
2023-03-05T18:58:34.541Z,8.00
2023-03-05T19:01:09.863Z,8.20
2023-03-05T19:03:44.203Z,7.50
2023-03-05T19:06:19.251Z,11.60
2023-03-05T19:09:58.920Z,11.70
2023-03-05T19:12:48.716Z,8.90
2023-03-05T19:15:46.817Z,10.00
2023-03-05T19:18:57.425Z,8.60
2023-03-05T19:21:33.820Z,6.90
2023-03-05T19:24:08.967Z,7.10
2023-03-05T19:26:44.403Z,7.60
2023-03-05T19:29:19.944Z,5.80
2023-03-05T19:31:55.451Z,5.70
2023-03-05T19:34:30.443Z,5.90
2023-03-05T19:37:05.802Z,5.00
2023-03-05T19:39:40.853Z,6.40
2023-03-05T19:42:15.732Z,6.40
2023-03-05T19:44:50.264Z,7.80
2023-03-05T19:47:26.081Z,6.70
2023-03-05T19:50:00.453Z,7.10
2023-03-05T19:52:34.983Z,6.40
2023-03-05T19:55:11.617Z,8.20
2023-03-05T19:57:46.592Z,8.20
2023-03-05T20:00:23.548Z,9.40
2023-03-05T20:02:58.815Z,8.10
2023-03-05T20:05:33.547Z,8.90
2023-03-05T20:08:08.341Z,8.20
2023-03-05T20:10:42.917Z,8.40
2023-03-05T20:13:17.770Z,10.00
2023-03-05T20:15:52.777Z,10.90
2023-03-05T20:18:28.025Z,9.50
2023-03-05T20:21:03.522Z,9.10
2023-03-05T20:23:39.549Z,8.80
2023-03-05T20:26:14.549Z,7.70
2023-03-05T20:28:50.183Z,9.30
2023-03-05T20:31:28.498Z,10.40
2023-03-05T20:34:04.228Z,10.00
2023-03-05T20:36:39.344Z,7.70
2023-03-05T20:39:14.333Z,9.80
2023-03-05T20:41:49.447Z,8.80
2023-03-05T20:44:24.771Z,9.80
2023-03-05T20:47:42.558Z,8.90
2023-03-05T20:50:19.814Z,9.80
2023-03-05T20:52:54.163Z,8.80
2023-03-05T20:55:29.701Z,8.80
2023-03-05T20:58:05.026Z,8.00
2023-03-05T21:00:40.450Z,7.00
2023-03-05T21:03:15.100Z,8.10
2023-03-05T21:05:50.954Z,7.70
2023-03-05T21:08:26.008Z,9.50
2023-03-05T21:11:00.950Z,8.20
2023-03-05T21:13:36.199Z,7.60
2023-03-05T21:16:15.768Z,7.30
2023-03-05T21:18:51.264Z,5.70
2023-03-05T21:21:26.230Z,6.90
2023-03-05T21:24:01.139Z,6.80
2023-03-05T21:26:35.596Z,5.70
2023-03-05T21:29:10.106Z,5.40
2023-03-05T21:31:45.078Z,6.50
2023-03-05T21:34:20.183Z,6.40
2023-03-05T21:36:55.259Z,6.30
2023-03-05T21:39:30.376Z,6.90
2023-03-05T21:42:05.291Z,7.40
2023-03-05T21:44:40.689Z,6.20
2023-03-05T21:47:15.260Z,7.60
2023-03-05T21:49:50.199Z,6.80
2023-03-05T21:52:24.742Z,6.60
2023-03-05T21:54:59.700Z,7.90
2023-03-05T21:57:34.674Z,7.60
2023-03-05T22:00:12.364Z,6.70
2023-03-05T22:02:47.163Z,7.80
2023-03-05T22:05:22.520Z,7.10
2023-03-05T22:07:57.008Z,4.70
2023-03-05T22:10:32.068Z,6.10
2023-03-05T22:13:13.521Z,6.50
2023-03-05T22:15:50.438Z,7.10
2023-03-05T22:18:28.134Z,6.00
2023-03-05T22:21:03.595Z,4.40
2023-03-05T22:23:38.567Z,4.50
2023-03-05T22:26:12.940Z,4.70
2023-03-05T22:28:47.806Z,6.60
2023-03-05T22:31:27.375Z,7.00
2023-03-05T22:34:01.826Z,6.50
2023-03-05T22:36:36.309Z,5.50
2023-03-05T22:39:10.922Z,5.10
2023-03-05T22:41:46.841Z,4.20
2023-03-05T22:44:23.253Z,5.30
2023-03-05T22:46:59.499Z,6.40
2023-03-05T22:49:34.485Z,7.30
2023-03-05T22:52:09.955Z,5.40
2023-03-05T22:54:44.468Z,6.30
2023-03-05T22:57:18.864Z,5.30
2023-03-05T22:59:53.220Z,5.80
2023-03-05T23:02:27.562Z,4.30
2023-03-05T23:05:03.572Z,6.30
2023-03-05T23:07:40.832Z,5.60
2023-03-05T23:10:19.654Z,5.70
2023-03-05T23:12:57.217Z,6.10
2023-03-05T23:15:34.949Z,5.00
2023-03-05T23:18:09.973Z,4.70
2023-03-05T23:20:44.835Z,4.80
2023-03-05T23:23:19.387Z,6.20
2023-03-05T23:25:56.429Z,6.00
2023-03-05T23:28:30.646Z,6.10
2023-03-05T23:31:05.196Z,5.20
2023-03-05T23:33:39.656Z,4.10
2023-03-05T23:36:14.096Z,4.10
2023-03-05T23:38:49.137Z,3.70
2023-03-05T23:41:23.582Z,4.30
2023-03-05T23:43:57.930Z,5.70
2023-03-05T23:46:32.338Z,6.60
2023-03-05T23:49:06.609Z,5.50
2023-03-05T23:51:40.590Z,5.40
2023-03-05T23:54:14.967Z,4.20
2023-03-05T23:56:49.328Z,3.80
2023-03-05T23:59:24.283Z,3.40
